createdAt,value
2019-05-26T00:00:23.714Z,26.00
2019-05-26T00:02:53.517Z,27.40
2019-05-26T00:05:23.379Z,27.37
2019-05-26T00:07:53.252Z,26.30
2019-05-26T00:10:23.364Z,25.53
2019-05-26T00:12:53.136Z,26.70
2019-05-26T00:15:23.036Z,24.40
2019-05-26T00:17:52.895Z,23.80
2019-05-26T00:20:22.981Z,23.30
2019-05-26T00:22:52.884Z,25.07
2019-05-26T00:25:22.756Z,25.03
2019-05-26T00:27:52.673Z,24.10
2019-05-26T00:30:22.739Z,22.43
2019-05-26T00:32:52.538Z,21.17
2019-05-26T00:35:22.492Z,20.93
2019-05-26T00:37:52.339Z,21.80
2019-05-26T00:40:22.574Z,20.17
2019-05-26T00:42:53.476Z,21.57
2019-05-26T00:45:23.701Z,19.50
2019-05-26T00:47:53.617Z,19.60
2019-05-26T00:50:23.628Z,18.17
2019-05-26T00:52:56.651Z,18.10
2019-05-26T00:55:26.785Z,17.70
2019-05-26T00:57:56.760Z,15.80
2019-05-26T01:00:54.727Z,15.03
2019-05-26T01:03:24.857Z,14.90
2019-05-26T01:05:54.655Z,16.23
2019-05-26T01:08:27.603Z,15.83
2019-05-26T01:11:01.143Z,16.47
2019-05-26T01:13:28.906Z,15.93
2019-05-26T01:15:58.763Z,16.37
2019-05-26T01:18:28.882Z,16.23
2019-05-26T01:20:58.714Z,16.73
2019-05-26T01:23:28.518Z,15.97
2019-05-26T01:25:58.325Z,15.53
2019-05-26T01:28:28.276Z,16.10
2019-05-26T01:30:58.294Z,14.10
2019-05-26T01:33:28.092Z,13.80
2019-05-26T01:35:58.134Z,12.50
2019-05-26T01:38:28.952Z,13.97
2019-05-26T01:40:58.834Z,13.37
2019-05-26T01:43:28.679Z,13.53
2019-05-26T01:45:58.558Z,13.47
2019-05-26T01:48:28.375Z,13.23
2019-05-26T01:50:58.387Z,12.73
2019-05-26T01:53:28.360Z,11.63
2019-05-26T01:55:58.471Z,13.50
2019-05-26T01:58:28.285Z,11.90
2019-05-26T02:00:58.201Z,12.67
2019-05-26T02:03:28.079Z,12.67
2019-05-26T02:05:57.925Z,12.83
2019-05-26T02:08:38.972Z,11.90
2019-05-26T02:10:59.191Z,12.03
2019-05-26T02:13:29.081Z,11.83
2019-05-26T02:15:58.885Z,11.33
2019-05-26T02:18:28.690Z,10.50
2019-05-26T02:20:58.643Z,10.97
2019-05-26T02:23:28.613Z,11.83
2019-05-26T02:25:58.416Z,11.60
2019-05-26T02:28:28.266Z,11.60
2019-05-26T02:30:58.292Z,12.17
2019-05-26T02:33:28.297Z,11.13
2019-05-26T02:35:58.140Z,11.47
2019-05-26T02:38:27.961Z,11.57
2019-05-26T02:40:57.853Z,10.73
2019-05-26T02:43:27.677Z,11.33
2019-05-26T02:45:57.527Z,11.43
2019-05-26T02:48:27.371Z,11.53
2019-05-26T02:50:57.224Z,11.37
2019-05-26T02:53:27.205Z,10.67
2019-05-26T02:55:57.235Z,11.20
2019-05-26T02:58:27.049Z,11.63
2019-05-26T03:00:57.065Z,11.30
2019-05-26T03:03:26.989Z,10.83
2019-05-26T03:05:57.226Z,10.77
2019-05-26T03:08:27.282Z,10.03
2019-05-26T03:10:59.846Z,10.97
2019-05-26T03:13:32.266Z,10.03
2019-05-26T03:16:02.878Z,10.43
2019-05-26T03:18:35.856Z,9.37
2019-05-26T03:21:06.225Z,10.53
2019-05-26T03:23:36.029Z,9.90
2019-05-26T03:26:06.038Z,10.13
2019-05-26T03:28:35.860Z,10.23
2019-05-26T03:31:05.766Z,8.97
2019-05-26T03:33:35.600Z,10.27
2019-05-26T03:36:05.475Z,10.43
2019-05-26T03:38:35.266Z,11.43
2019-05-26T03:41:06.343Z,10.80
2019-05-26T03:43:36.209Z,9.73
2019-05-26T03:46:31.194Z,9.93
2019-05-26T03:49:01.069Z,9.63
2019-05-26T03:51:30.896Z,9.90
2019-05-26T03:54:00.802Z,10.63
2019-05-26T03:56:30.728Z,10.70
2019-05-26T03:59:00.532Z,10.40
2019-05-26T04:01:30.497Z,9.37
2019-05-26T04:04:00.281Z,10.40
2019-05-26T04:06:30.100Z,10.17
2019-05-26T04:09:00.083Z,10.07
2019-05-26T04:11:29.896Z,9.87
2019-05-26T04:13:59.758Z,9.00
2019-05-26T04:16:29.598Z,9.97
2019-05-26T04:18:59.547Z,9.87
2019-05-26T04:21:29.372Z,9.80
2019-05-26T04:23:59.216Z,10.87
2019-05-26T04:26:28.981Z,10.30
2019-05-26T04:28:58.893Z,10.33
2019-05-26T04:31:28.753Z,9.37
2019-05-26T04:33:58.618Z,10.37
2019-05-26T04:36:28.477Z,9.43
2019-05-26T04:38:58.500Z,10.27
2019-05-26T04:41:28.455Z,9.77
2019-05-26T04:43:58.410Z,10.27
2019-05-26T04:46:28.403Z,10.27
2019-05-26T04:48:58.252Z,11.13
2019-05-26T04:51:28.029Z,12.13
2019-05-26T04:53:57.875Z,9.73
2019-05-26T04:56:27.689Z,10.77
2019-05-26T04:58:57.585Z,10.97
2019-05-26T05:01:29.008Z,10.80
2019-05-26T05:03:58.862Z,10.70
2019-05-26T05:06:28.783Z,9.87
2019-05-26T05:08:58.588Z,9.83
2019-05-26T05:11:28.541Z,9.87
2019-05-26T05:13:59.492Z,9.77
2019-05-26T05:16:29.418Z,9.70
2019-05-26T05:18:59.426Z,9.07
2019-05-26T05:21:29.237Z,8.80
2019-05-26T05:23:59.049Z,8.07
2019-05-26T05:26:33.424Z,8.17
2019-05-26T05:29:03.260Z,7.77
2019-05-26T05:31:33.093Z,8.97
2019-05-26T05:34:02.970Z,7.30
2019-05-26T05:36:32.868Z,7.13
2019-05-26T05:39:02.970Z,7.87
2019-05-26T05:41:32.838Z,6.37
2019-05-26T05:44:02.765Z,6.67
2019-05-26T05:46:32.662Z,6.90
2019-05-26T05:49:02.684Z,5.77
2019-05-26T05:51:32.470Z,6.00
2019-05-26T05:54:02.517Z,5.60
2019-05-26T05:56:32.349Z,6.27
2019-05-26T05:59:02.157Z,5.87
2019-05-26T06:01:32.061Z,6.00
2019-05-26T06:04:01.993Z,5.73
2019-05-26T06:06:31.848Z,5.53
2019-05-26T06:09:01.739Z,5.50
2019-05-26T06:11:31.516Z,5.53
2019-05-26T06:14:01.380Z,5.50
2019-05-26T06:16:31.292Z,4.70
2019-05-26T06:19:01.193Z,4.30
2019-05-26T06:21:31.021Z,4.90
2019-05-26T06:24:00.844Z,4.33
2019-05-26T06:26:30.821Z,5.13
2019-05-26T06:29:00.679Z,4.07
2019-05-26T06:31:30.494Z,3.90
2019-05-26T06:34:00.412Z,4.37
2019-05-26T06:36:30.199Z,4.27
2019-05-26T06:39:00.063Z,3.47
2019-05-26T06:41:33.899Z,3.97
2019-05-26T06:44:01.838Z,3.40
2019-05-26T06:46:31.755Z,3.43
2019-05-26T06:49:01.601Z,3.47
2019-05-26T06:51:31.412Z,3.07
2019-05-26T06:54:01.353Z,3.47
2019-05-26T06:56:31.156Z,3.47
2019-05-26T06:59:02.935Z,3.63
2019-05-26T07:01:32.517Z,2.80
2019-05-26T07:04:02.345Z,3.13
2019-05-26T07:06:32.243Z,3.00
2019-05-26T07:09:02.107Z,2.93
2019-05-26T07:11:49.078Z,2.67
2019-05-26T07:14:03.726Z,2.50
2019-05-26T07:16:37.988Z,2.40
2019-05-26T07:19:05.453Z,2.60
2019-05-26T07:21:35.280Z,2.50
2019-05-26T07:24:05.229Z,2.23
2019-05-26T07:26:35.105Z,2.10
2019-05-26T07:29:04.956Z,2.63
2019-05-26T07:31:35.760Z,2.37
2019-05-26T07:34:05.721Z,1.80
2019-05-26T07:36:35.864Z,2.27
2019-05-26T07:39:07.939Z,2.47
2019-05-26T07:41:37.854Z,2.20
2019-05-26T07:44:07.720Z,2.40
2019-05-26T07:46:37.889Z,1.93
2019-05-26T07:49:07.802Z,1.90
2019-05-26T07:51:37.768Z,2.23
2019-05-26T07:54:22.619Z,1.97
2019-05-26T07:56:39.475Z,2.33
2019-05-26T07:59:09.331Z,2.03
2019-05-26T08:01:39.269Z,2.43
2019-05-26T08:04:09.132Z,2.60
2019-05-26T08:06:39.001Z,2.20
2019-05-26T08:09:09.630Z,2.47
2019-05-26T08:11:39.608Z,2.27
2019-05-26T08:14:09.663Z,1.83
2019-05-26T08:16:39.730Z,2.10
2019-05-26T08:19:09.591Z,2.40
2019-05-26T08:21:39.447Z,2.03
2019-05-26T08:24:09.374Z,1.90
2019-05-26T08:26:39.235Z,2.23
2019-05-26T08:29:09.248Z,2.07
2019-05-26T08:31:39.189Z,2.40
2019-05-26T08:34:09.336Z,2.20
2019-05-26T08:36:39.304Z,2.67
2019-05-26T08:39:09.614Z,2.07
2019-05-26T08:41:39.662Z,1.53
2019-05-26T08:44:09.704Z,2.10
2019-05-26T08:46:39.878Z,2.30
2019-05-26T08:49:09.691Z,2.10
2019-05-26T08:51:39.504Z,1.83
2019-05-26T08:54:09.265Z,2.50
2019-05-26T08:56:39.122Z,2.00
2019-05-26T08:59:09.051Z,2.40
2019-05-26T09:01:38.905Z,2.03
2019-05-26T09:04:08.723Z,2.60
2019-05-26T09:06:38.632Z,2.07
2019-05-26T09:09:08.884Z,2.20
2019-05-26T09:11:39.114Z,2.37
2019-05-26T09:14:09.194Z,2.33
2019-05-26T09:16:39.159Z,2.70
2019-05-26T09:19:09.044Z,2.13
2019-05-26T09:21:38.873Z,2.77
2019-05-26T09:24:08.800Z,2.10
2019-05-26T09:26:38.810Z,2.83
2019-05-26T09:29:08.627Z,2.80
2019-05-26T09:31:38.510Z,3.13
2019-05-26T09:34:08.404Z,2.70
2019-05-26T09:36:38.271Z,3.13
2019-05-26T09:39:09.211Z,2.90
2019-05-26T09:41:39.122Z,2.77
2019-05-26T09:44:09.000Z,3.00
2019-05-26T09:46:39.000Z,3.10
2019-05-26T09:49:08.865Z,2.67
2019-05-26T09:51:38.828Z,2.90
2019-05-26T09:54:08.748Z,13.13
2019-05-26T09:56:38.656Z,4.10
2019-05-26T09:59:08.731Z,4.23
2019-05-26T10:01:38.826Z,3.33
2019-05-26T10:04:08.643Z,3.20
2019-05-26T10:06:38.725Z,3.50
2019-05-26T10:09:09.100Z,3.67
2019-05-26T10:11:40.551Z,3.87
2019-05-26T10:14:10.778Z,24.53
2019-05-26T10:16:50.646Z,8.73
2019-05-26T10:19:26.553Z,4.77
2019-05-26T10:22:02.515Z,3.93
2019-05-26T10:25:00.645Z,4.27
2019-05-26T10:27:33.884Z,3.27
2019-05-26T10:30:11.257Z,3.60
2019-05-26T10:32:47.438Z,3.53
2019-05-26T10:35:24.925Z,3.23
2019-05-26T10:37:56.136Z,3.63
2019-05-26T10:40:29.215Z,3.80
2019-05-26T10:43:02.679Z,3.53
2019-05-26T10:45:34.462Z,4.00
2019-05-26T10:48:09.417Z,3.03
2019-05-26T10:50:46.945Z,3.07
2019-05-26T10:53:21.379Z,4.27
2019-05-26T10:56:06.567Z,4.20
2019-05-26T10:58:42.282Z,2.87
2019-05-26T11:01:14.434Z,4.07
2019-05-26T11:03:48.582Z,3.50
2019-05-26T11:06:21.446Z,3.37
2019-05-26T11:09:09.554Z,3.00
2019-05-26T11:11:46.952Z,3.87
2019-05-26T11:14:21.316Z,3.33
2019-05-26T11:16:57.639Z,2.93
2019-05-26T11:19:34.252Z,2.87
2019-05-26T11:22:04.884Z,3.17
2019-05-26T11:24:35.635Z,3.20
2019-05-26T11:27:14.968Z,2.87
2019-05-26T11:29:50.963Z,2.98
2019-05-26T11:32:26.525Z,3.23
2019-05-26T11:35:02.310Z,3.30
2019-05-26T11:37:33.307Z,3.77
2019-05-26T11:40:08.833Z,3.30
2019-05-26T11:42:44.644Z,2.60
2019-05-26T11:45:18.513Z,3.30
2019-05-26T11:47:54.827Z,2.80
2019-05-26T11:50:31.901Z,2.75
2019-05-26T11:53:02.449Z,3.10
2019-05-26T11:55:36.128Z,2.72
2019-05-26T11:58:06.873Z,2.85
2019-05-26T12:00:37.810Z,3.05
2019-05-26T12:03:16.130Z,3.30
2019-05-26T12:05:45.461Z,3.20
2019-05-26T12:08:23.532Z,3.22
2019-05-26T12:10:58.283Z,3.47
2019-05-26T12:13:31.998Z,3.00
2019-05-26T12:16:07.184Z,3.57
2019-05-26T12:18:47.516Z,3.87
2019-05-26T12:21:22.444Z,3.05
2019-05-26T12:24:02.331Z,3.53
2019-05-26T12:26:35.941Z,4.27
2019-05-26T12:29:08.259Z,3.70
2019-05-26T12:31:46.229Z,6.83
2019-05-26T12:34:17.415Z,16.63
2019-05-26T12:36:53.668Z,9.93
2019-05-26T12:39:26.034Z,3.70
2019-05-26T12:41:56.533Z,2.90
2019-05-26T12:44:31.755Z,3.10
2019-05-26T12:47:01.717Z,2.90
2019-05-26T12:49:34.267Z,3.00
2019-05-26T12:52:12.962Z,2.50
2019-05-26T12:54:45.524Z,4.30
2019-05-26T12:57:24.271Z,16.43
2019-05-26T12:59:55.045Z,4.70
2019-05-26T13:02:25.260Z,2.70
2019-05-26T13:05:03.852Z,2.70
2019-05-26T13:07:40.593Z,3.23
2019-05-26T13:10:16.269Z,4.20
2019-05-26T13:12:54.703Z,2.60
2019-05-26T13:15:31.569Z,3.43
2019-05-26T13:18:03.721Z,2.95
2019-05-26T13:20:33.979Z,2.20
2019-05-26T13:23:06.630Z,2.30
2019-05-26T13:25:36.751Z,3.17
2019-05-26T13:28:15.019Z,2.23
2019-05-26T13:30:48.451Z,2.75
2019-05-26T13:33:26.979Z,2.00
2019-05-26T13:35:57.135Z,2.08
2019-05-26T13:38:33.282Z,2.25
2019-05-26T13:41:07.224Z,2.10
2019-05-26T13:43:39.703Z,2.47
2019-05-26T13:46:13.961Z,2.35
2019-05-26T13:48:55.385Z,2.33
2019-05-26T13:51:27.804Z,2.23
2019-05-26T13:54:09.163Z,2.60
2019-05-26T13:56:43.226Z,7.67
2019-05-26T13:59:32.416Z,2.10
2019-05-26T14:02:09.473Z,2.20
2019-05-26T14:04:45.043Z,2.40
2019-05-26T14:07:20.194Z,3.45
2019-05-26T14:09:53.866Z,9.48
2019-05-26T14:12:26.919Z,3.57
2019-05-26T14:14:57.510Z,13.33
2019-05-26T14:17:36.516Z,3.47
2019-05-26T14:20:13.028Z,2.50
2019-05-26T14:22:48.413Z,1.53
2019-05-26T14:25:22.677Z,2.00
2019-05-26T14:27:55.123Z,2.30
2019-05-26T14:30:32.654Z,1.53
2019-05-26T14:33:08.753Z,2.40
2019-05-26T14:35:45.734Z,2.07
2019-05-26T14:38:16.402Z,1.90
2019-05-26T14:40:48.401Z,3.30
2019-05-26T14:43:20.118Z,2.00
2019-05-26T14:46:08.434Z,2.60
2019-05-26T14:48:41.230Z,1.80
2019-05-26T14:51:19.662Z,1.50
2019-05-26T14:53:51.938Z,7.77
2019-05-26T14:56:25.584Z,2.50
2019-05-26T14:58:57.328Z,6.33
2019-05-26T15:01:30.192Z,2.90
2019-05-26T15:04:00.260Z,2.10
2019-05-26T15:06:36.598Z,1.80
2019-05-26T15:09:24.216Z,1.62
2019-05-26T15:11:42.623Z,1.87
2019-05-26T15:14:12.535Z,2.15
2019-05-26T15:16:47.654Z,3.12
2019-05-26T15:19:20.021Z,2.12
2019-05-26T15:21:50.072Z,1.72
2019-05-26T15:24:32.481Z,4.40
2019-05-26T15:27:04.882Z,3.07
2019-05-26T15:29:37.713Z,3.33
2019-05-26T15:32:11.683Z,2.00
2019-05-26T15:34:46.728Z,2.37
2019-05-26T15:37:24.547Z,2.30
2019-05-26T15:40:04.551Z,3.20
2019-05-26T15:42:38.907Z,2.17
2019-05-26T15:45:14.530Z,1.93
2019-05-26T15:47:50.537Z,2.30
2019-05-26T15:50:27.093Z,1.80
2019-05-26T15:53:01.269Z,1.80
2019-05-26T15:55:32.683Z,1.87
2019-05-26T15:58:40.970Z,2.87
2019-05-26T16:01:13.057Z,1.87
2019-05-26T16:03:49.049Z,2.20
2019-05-26T16:06:19.252Z,2.80
2019-05-26T16:09:46.480Z,2.17
2019-05-26T16:12:16.783Z,1.73
2019-05-26T16:14:52.572Z,2.37
2019-05-26T16:17:25.320Z,2.30
2019-05-26T16:19:55.437Z,2.53
2019-05-26T16:22:25.689Z,1.97
2019-05-26T16:24:55.753Z,1.90
2019-05-26T16:27:25.796Z,1.77
2019-05-26T16:29:55.580Z,2.00
2019-05-26T16:32:25.644Z,1.50
2019-05-26T16:34:55.641Z,2.00
2019-05-26T16:37:25.481Z,2.33
2019-05-26T16:39:56.041Z,1.93
2019-05-26T16:42:26.551Z,1.97
2019-05-26T16:44:56.454Z,2.53
2019-05-26T16:47:26.366Z,2.00
2019-05-26T16:49:56.184Z,1.77
2019-05-26T16:52:26.145Z,1.77
2019-05-26T16:54:55.962Z,2.20
2019-05-26T16:57:25.840Z,1.43
2019-05-26T16:59:55.803Z,1.70
2019-05-26T17:02:25.665Z,1.77
2019-05-26T17:04:55.513Z,1.47
2019-05-26T17:07:25.535Z,1.43
2019-05-26T17:09:55.643Z,1.50
2019-05-26T17:12:25.587Z,2.23
2019-05-26T17:14:55.542Z,1.67
2019-05-26T17:17:25.389Z,1.50
2019-05-26T17:19:55.153Z,1.60
2019-05-26T17:22:25.013Z,1.97
2019-05-26T17:24:59.731Z,1.80
2019-05-26T17:27:27.966Z,1.70
2019-05-26T17:29:58.094Z,1.40
2019-05-26T17:32:27.952Z,1.83
2019-05-26T17:34:58.968Z,1.70
2019-05-26T17:37:28.900Z,1.47
2019-05-26T17:39:58.775Z,1.87
2019-05-26T17:42:29.296Z,1.53
2019-05-26T17:44:59.262Z,1.73
2019-05-26T17:47:30.668Z,1.80
2019-05-26T17:50:00.726Z,1.80
2019-05-26T17:52:30.645Z,1.90
2019-05-26T17:55:00.538Z,1.90
2019-05-26T17:57:30.535Z,1.90
2019-05-26T18:00:00.439Z,1.90
2019-05-26T18:02:30.458Z,1.70
2019-05-26T18:05:00.319Z,2.03
2019-05-26T18:07:30.273Z,1.90
2019-05-26T18:10:00.149Z,1.57
2019-05-26T18:12:30.318Z,1.80
2019-05-26T18:15:00.118Z,2.17
2019-05-26T18:17:44.099Z,2.00
2019-05-26T18:20:01.551Z,2.43
2019-05-26T18:22:31.664Z,2.07
2019-05-26T18:25:01.673Z,2.47
2019-05-26T18:27:31.593Z,1.77
2019-05-26T18:30:01.510Z,2.00
2019-05-26T18:32:31.319Z,2.17
2019-05-26T18:35:01.742Z,1.60
2019-05-26T18:37:31.788Z,1.77
2019-05-26T18:40:01.949Z,1.87
2019-05-26T18:42:32.262Z,1.80
2019-05-26T18:45:03.389Z,2.20
2019-05-26T18:47:33.278Z,2.47
2019-05-26T18:50:05.738Z,2.30
2019-05-26T18:52:35.870Z,1.80
2019-05-26T18:55:06.676Z,3.10
2019-05-26T18:57:38.262Z,2.00
2019-05-26T19:00:08.733Z,1.90
2019-05-26T19:02:38.610Z,2.00
2019-05-26T19:05:09.366Z,2.30
2019-05-26T19:07:39.234Z,1.70
2019-05-26T19:10:10.500Z,2.20
2019-05-26T19:12:40.729Z,2.23
2019-05-26T19:15:12.727Z,1.63
2019-05-26T19:17:42.676Z,1.83
2019-05-26T19:20:16.620Z,1.97
2019-05-26T19:22:46.192Z,2.10
2019-05-26T19:25:16.677Z,1.83
2019-05-26T19:27:47.629Z,1.83
2019-05-26T19:30:18.604Z,2.00
2019-05-26T19:32:49.906Z,1.80
2019-05-26T19:35:20.252Z,1.93
2019-05-26T19:37:50.453Z,2.10
2019-05-26T19:40:29.780Z,2.40
2019-05-26T19:42:59.803Z,1.80
2019-05-26T19:45:30.118Z,2.10
2019-05-26T19:48:01.040Z,2.10
2019-05-26T19:50:31.096Z,1.80
2019-05-26T19:53:01.404Z,2.60
2019-05-26T19:55:31.284Z,2.13
2019-05-26T19:58:01.160Z,2.67
2019-05-26T20:00:31.303Z,2.23
2019-05-26T20:03:01.158Z,2.00
2019-05-26T20:05:31.241Z,2.13
2019-05-26T20:08:01.068Z,2.47
2019-05-26T20:10:31.213Z,2.47
2019-05-26T20:13:01.087Z,2.50
2019-05-26T20:15:31.088Z,2.27
2019-05-26T20:18:03.183Z,2.40
2019-05-26T20:20:33.089Z,2.37
2019-05-26T20:23:03.298Z,1.77
2019-05-26T20:25:33.320Z,2.27
2019-05-26T20:28:03.861Z,2.00
2019-05-26T20:30:33.959Z,2.70
2019-05-26T20:33:03.853Z,2.80
2019-05-26T20:35:33.776Z,2.47
2019-05-26T20:38:03.680Z,2.23
2019-05-26T20:40:33.578Z,2.40
2019-05-26T20:43:03.863Z,2.10
2019-05-26T20:45:35.994Z,2.37
2019-05-26T20:48:05.871Z,2.27
2019-05-26T20:50:35.840Z,2.57
2019-05-26T20:53:05.672Z,2.60
2019-05-26T20:55:35.615Z,2.50
2019-05-26T20:58:05.444Z,2.63
2019-05-26T21:00:35.278Z,2.80
2019-05-26T21:03:05.176Z,2.97
2019-05-26T21:05:35.022Z,2.87
2019-05-26T21:08:04.826Z,2.87
2019-05-26T21:10:34.736Z,3.40
2019-05-26T21:13:04.507Z,2.80
2019-05-26T21:15:34.461Z,2.90
2019-05-26T21:18:04.429Z,3.10
2019-05-26T21:20:34.406Z,2.63
2019-05-26T21:23:04.311Z,3.00
2019-05-26T21:25:34.155Z,3.07
2019-05-26T21:28:04.018Z,3.20
2019-05-26T21:30:33.848Z,3.07
2019-05-26T21:33:03.856Z,3.37
2019-05-26T21:35:33.678Z,3.00
2019-05-26T21:38:04.674Z,2.83
2019-05-26T21:40:34.556Z,3.10
2019-05-26T21:43:04.533Z,3.20
2019-05-26T21:45:34.610Z,3.87
2019-05-26T21:48:04.662Z,3.20
2019-05-26T21:50:34.625Z,3.07
2019-05-26T21:53:10.788Z,3.37
2019-05-26T21:55:40.623Z,3.20
2019-05-26T21:58:10.519Z,3.50
2019-05-26T22:00:44.026Z,3.27
2019-05-26T22:03:13.965Z,3.67
2019-05-26T22:05:43.818Z,3.30
2019-05-26T22:08:13.830Z,3.30
2019-05-26T22:10:43.633Z,3.00
2019-05-26T22:13:13.494Z,3.03
2019-05-26T22:15:43.334Z,3.13
2019-05-26T22:18:13.159Z,3.57
2019-05-26T22:20:43.198Z,3.43
2019-05-26T22:23:13.230Z,3.43
2019-05-26T22:25:43.078Z,3.60
2019-05-26T22:28:12.897Z,3.00
2019-05-26T22:30:42.824Z,4.10
2019-05-26T22:33:12.629Z,3.80
2019-05-26T22:35:42.485Z,3.63
2019-05-26T22:38:12.427Z,3.40
2019-05-26T22:40:42.201Z,3.40
2019-05-26T22:43:12.439Z,3.70
2019-05-26T22:45:42.433Z,3.63
2019-05-26T22:48:12.261Z,3.33
2019-05-26T22:50:42.120Z,4.63
2019-05-26T22:53:12.149Z,3.87
2019-05-26T22:55:41.918Z,3.80
2019-05-26T22:58:11.843Z,3.93
2019-05-26T23:00:41.721Z,3.77
2019-05-26T23:03:11.624Z,3.73
2019-05-26T23:05:41.469Z,3.13
2019-05-26T23:08:11.298Z,3.40
2019-05-26T23:10:41.090Z,3.70
2019-05-26T23:13:11.039Z,3.57
2019-05-26T23:15:40.937Z,4.43
2019-05-26T23:18:10.814Z,3.77
2019-05-26T23:20:40.667Z,3.67
2019-05-26T23:23:10.442Z,3.87
2019-05-26T23:25:40.262Z,3.83
2019-05-26T23:28:10.091Z,3.83
2019-05-26T23:30:39.855Z,3.90
2019-05-26T23:33:09.678Z,3.80
2019-05-26T23:35:39.455Z,4.10
2019-05-26T23:38:09.305Z,4.53
2019-05-26T23:40:39.185Z,3.60
2019-05-26T23:43:09.031Z,3.67
2019-05-26T23:45:38.853Z,4.07
2019-05-26T23:48:08.703Z,3.50
2019-05-26T23:50:38.519Z,3.97
2019-05-26T23:53:08.339Z,4.10
2019-05-26T23:55:38.114Z,3.70
2019-05-26T23:58:07.937Z,3.60
